Time;durP1;ratioP1;P1;durP2;ratioP2;P2;SDS_P1;SDS_P2;PMS_P1;PMS_P2;Temp;Humidity;BMP_temperature;BMP_pressure;BME280_temperature;BME280_humidity;BME280_pressure;Samples;Min_cycle;Max_cycle;Signal;HPM_P1;HPM_P2
2022/06/29 00:02:11;;;;;;;2.35;1.60;;;21.10;99.90;;;;;;6165082;28;20279;-67
2022/06/29 00:05:21;;;;;;;5.75;1.58;;;21.10;99.90;;;;;;6165562;29;20270;-67
2022/06/29 00:08:28;;;;;;;1.70;1.60;;;21.10;99.90;;;;;;6179277;28;20301;-68
2022/06/29 00:11:33;;;;;;;5.38;1.60;;;21.10;99.90;;;;;;6188908;28;20581;-67
2022/06/29 00:14:42;;;;;;;1.40;1.40;;;21.00;99.90;;;;;;6189175;28;20273;-67
2022/06/29 00:17:55;;;;;;;2.25;2.08;;;21.00;99.90;;;;;;6188930;28;20273;-67
2022/06/29 00:21:00;;;;;;;1.92;1.67;;;20.90;99.90;;;;;;6188872;28;20278;-67
2022/06/29 00:24:08;;;;;;;1.80;1.38;;;20.90;99.90;;;;;;6189143;28;20273;-68
2022/06/29 00:27:13;;;;;;;1.40;1.40;;;20.90;99.90;;;;;;6171711;28;20274;-67
2022/06/29 00:30:19;;;;;;;3.17;1.70;;;20.80;99.90;;;;;;6188296;28;20297;-67
2022/06/29 00:33:24;;;;;;;1.85;1.45;;;20.80;99.90;;;;;;6188806;28;20278;-67
2022/06/29 00:36:29;;;;;;;2.20;1.50;;;20.80;99.90;;;;;;6188366;28;20278;-66
2022/06/29 00:39:37;;;;;;;1.65;1.50;;;20.80;99.90;;;;;;6188687;28;20275;-67
2022/06/29 00:42:42;;;;;;;1.48;1.48;;;20.70;99.90;;;;;;6188562;28;20272;-67
2022/06/29 00:45:47;;;;;;;1.63;1.60;;;20.70;99.90;;;;;;6188512;28;20294;-67
2022/06/29 00:48:53;;;;;;;5.38;1.63;;;20.80;99.90;;;;;;6188047;28;20273;-66
2022/06/29 00:52:05;;;;;;;3.88;1.60;;;20.60;99.90;;;;;;6187950;28;20293;-66
2022/06/29 00:55:18;;;;;;;1.48;1.40;;;20.70;99.90;;;;;;6188527;28;20269;-67
2022/06/29 00:58:24;;;;;;;1.70;1.60;;;20.50;99.90;;;;;;6187985;28;20556;-67
2022/06/29 01:01:31;;;;;;;1.70;1.60;;;20.50;99.90;;;;;;6188188;28;20291;-67
2022/06/29 01:04:37;;;;;;;1.83;1.73;;;20.50;99.90;;;;;;6177596;28;20266;-67
2022/06/29 01:07:42;;;;;;;1.33;1.33;;;20.50;99.90;;;;;;6164302;28;20314;-67
2022/06/29 01:10:49;;;;;;;1.85;1.60;;;20.40;99.90;;;;;;6164041;28;20380;-66
2022/06/29 01:13:54;;;;;;;1.50;1.50;;;20.40;99.90;;;;;;6166397;28;20387;-67
2022/06/29 01:16:59;;;;;;;1.73;1.73;;;20.30;99.90;;;;;;6168830;29;20459;-67
2022/06/29 01:20:06;;;;;;;4.78;1.60;;;20.40;99.90;;;;;;6168817;29;20283;-67
2022/06/29 01:23:15;;;;;;;2.38;2.17;;;20.50;99.90;;;;;;6169034;29;20303;-67
2022/06/29 01:26:21;;;;;;;2.85;1.60;;;20.50;99.90;;;;;;6169071;29;20275;-67
2022/06/29 01:29:26;;;;;;;1.50;1.50;;;20.40;99.90;;;;;;6168743;29;20274;-66
2022/06/29 01:32:31;;;;;;;1.67;1.63;;;20.50;99.90;;;;;;6168856;29;20293;-67
2022/06/29 01:35:37;;;;;;;2.10;2.10;;;20.40;99.90;;;;;;6168443;29;20276;-67
2022/06/29 01:38:44;;;;;;;3.13;1.85;;;20.40;99.90;;;;;;6168406;28;20461;-67
2022/06/29 01:41:49;;;;;;;1.88;1.88;;;20.40;99.90;;;;;;6168390;28;20280;-67
2022/06/29 01:44:54;;;;;;;2.08;2.00;;;20.30;99.90;;;;;;6168332;28;20294;-67
2022/06/29 01:47:59;;;;;;;2.22;2.13;;;20.20;99.90;;;;;;6168407;29;20356;-66
2022/06/29 01:51:05;;;;;;;2.10;2.10;;;20.20;99.90;;;;;;6168410;29;20302;-66
2022/06/29 01:54:12;;;;;;;2.70;2.28;;;20.20;99.90;;;;;;6168024;29;20597;-67
2022/06/29 01:57:18;;;;;;;2.33;2.22;;;20.30;99.90;;;;;;6168244;29;20278;-67
2022/06/29 02:00:23;;;;;;;2.33;2.22;;;20.30;99.90;;;;;;6168284;29;20275;-67
2022/06/29 02:03:30;;;;;;;2.28;2.20;;;20.30;99.90;;;;;;6167639;29;20279;-67
2022/06/29 02:06:35;;;;;;;2.53;2.40;;;20.40;99.90;;;;;;6167603;29;20278;-67
2022/06/29 02:09:42;;;;;;;2.72;2.63;;;20.40;99.90;;;;;;6167938;29;20275;-67
2022/06/29 02:12:52;;;;;;;2.47;2.45;;;20.30;99.90;;;;;;6167708;29;20294;-67
2022/06/29 02:15:58;;;;;;;2.85;2.65;;;20.30;99.90;;;;;;6167732;29;20278;-67
2022/06/29 02:19:04;;;;;;;2.40;2.30;;;20.40;99.90;;;;;;6167717;29;20278;-67
2022/06/29 02:22:11;;;;;;;2.60;2.45;;;20.40;99.90;;;;;;6167343;29;20569;-67
2022/06/29 02:25:21;;;;;;;2.60;2.50;;;20.40;99.90;;;;;;6165831;28;20279;-67
2022/06/29 02:28:27;;;;;;;3.05;2.55;;;20.40;99.90;;;;;;6167118;29;20470;-67
2022/06/29 02:34:55;;;;;;;2.45;2.45;;;20.30;99.90;;;;;;6167393;28;20274;-67
2022/06/29 02:38:00;;;;;;;2.42;2.20;;;20.40;99.90;;;;;;6167167;29;20457;-67
2022/06/29 02:41:06;;;;;;;2.60;2.50;;;20.50;99.90;;;;;;6167279;29;20275;-67
2022/06/29 02:44:15;;;;;;;2.72;2.63;;;20.40;99.90;;;;;;6166860;29;20274;-67
2022/06/29 02:47:20;;;;;;;2.70;2.60;;;20.50;99.90;;;;;;6167031;29;20278;-67
2022/06/29 02:50:26;;;;;;;2.72;2.45;;;20.50;99.90;;;;;;6166662;29;20270;-67
2022/06/29 02:53:31;;;;;;;3.00;2.90;;;20.50;99.90;;;;;;6166859;29;20294;-67
2022/06/29 02:56:37;;;;;;;3.70;2.67;;;20.50;99.90;;;;;;6166447;29;20278;-67
2022/06/29 02:59:43;;;;;;;3.40;2.80;;;20.50;99.90;;;;;;6166544;29;20275;-67
2022/06/29 03:02:48;;;;;;;2.60;2.50;;;20.40;99.90;;;;;;6166504;28;20462;-67
2022/06/29 03:05:53;;;;;;;3.13;2.90;;;20.40;99.90;;;;;;6166994;29;20274;-67
2022/06/29 03:08:58;;;;;;;2.85;2.70;;;20.40;99.90;;;;;;6166377;29;20306;-67
2022/06/29 03:12:06;;;;;;;2.67;2.58;;;20.40;99.90;;;;;;6166594;29;20608;-67
2022/06/29 03:15:11;;;;;;;2.83;2.78;;;20.40;99.90;;;;;;6166615;29;20278;-67
2022/06/29 03:18:17;;;;;;;3.28;2.97;;;20.30;99.90;;;;;;6166632;29;20274;-67
2022/06/29 03:21:22;;;;;;;3.15;2.95;;;20.30;99.90;;;;;;6166275;28;20278;-67
2022/06/29 03:24:27;;;;;;;2.88;2.78;;;20.40;99.90;;;;;;6166045;29;20470;-67
2022/06/29 03:27:34;;;;;;;3.17;2.97;;;20.40;99.90;;;;;;6165961;29;20274;-67
2022/06/29 03:30:39;;;;;;;3.30;2.92;;;20.40;99.90;;;;;;6165876;29;20278;-67
2022/06/29 03:33:45;;;;;;;2.80;2.72;;;20.30;99.90;;;;;;6166255;28;20294;-67
2022/06/29 03:36:50;;;;;;;5.97;2.88;;;20.30;99.90;;;;;;6165691;28;20274;-67
2022/06/29 03:39:55;;;;;;;2.72;2.60;;;20.30;99.90;;;;;;6165709;29;20279;-67
2022/06/29 03:43:01;;;;;;;3.28;2.70;;;20.20;99.90;;;;;;6166057;28;20278;-66
2022/06/29 03:46:07;;;;;;;2.38;2.38;;;20.30;99.90;;;;;;6166111;28;20278;-66
2022/06/29 03:49:12;;;;;;;2.80;2.72;;;20.20;99.90;;;;;;6165819;29;20278;-67
2022/06/29 03:52:17;;;;;;;3.03;2.78;;;20.20;99.90;;;;;;6165478;28;20275;-68
2022/06/29 03:55:22;;;;;;;2.75;2.75;;;20.20;99.90;;;;;;6165610;29;20274;-67
2022/06/29 03:58:29;;;;;;;3.08;2.80;;;20.00;99.90;;;;;;6165399;28;20585;-67
2022/06/29 04:01:35;;;;;;;3.50;3.20;;;20.10;99.90;;;;;;6165618;29;20597;-67
2022/06/29 04:04:40;;;;;;;3.47;3.38;;;20.20;99.90;;;;;;6165464;29;20538;-67
2022/06/29 04:07:45;;;;;;;2.75;2.75;;;20.20;99.90;;;;;;6173584;28;20597;-67
2022/06/29 04:10:50;;;;;;;2.90;2.70;;;20.30;99.90;;;;;;6189229;28;20557;-67
2022/06/29 04:13:56;;;;;;;2.90;2.90;;;20.20;99.90;;;;;;6188538;28;20298;-67
2022/06/29 04:17:02;;;;;;;3.20;3.10;;;20.30;99.90;;;;;;6188939;28;20565;-67
2022/06/29 04:20:08;;;;;;;3.00;2.90;;;20.30;99.90;;;;;;6188979;28;20279;-67
2022/06/29 04:23:14;;;;;;;2.85;2.72;;;20.30;99.90;;;;;;6188975;28;20299;-67
2022/06/29 04:26:19;;;;;;;2.90;2.80;;;20.30;99.90;;;;;;6188458;28;20274;-67
2022/06/29 04:29:26;;;;;;;2.83;2.83;;;20.40;99.90;;;;;;6188695;28;20279;-67
2022/06/29 04:32:31;;;;;;;3.13;2.90;;;20.40;99.90;;;;;;6188837;28;20278;-67
2022/06/29 04:35:38;;;;;;;3.50;3.20;;;20.50;99.90;;;;;;6188672;28;20321;-67
2022/06/29 04:38:43;;;;;;;3.55;3.35;;;20.40;99.90;;;;;;6188217;28;20273;-67
2022/06/29 04:41:48;;;;;;;2.78;2.78;;;20.40;99.90;;;;;;6188173;28;20265;-67
2022/06/29 04:44:55;;;;;;;2.75;2.75;;;20.40;99.90;;;;;;6188183;28;20438;-67
2022/06/29 04:48:01;;;;;;;6.05;3.20;;;20.40;99.90;;;;;;6187761;28;20568;-67
2022/06/29 04:51:06;;;;;;;3.28;3.15;;;20.40;99.90;;;;;;6188214;28;20273;-67
2022/06/29 04:54:12;;;;;;;3.35;3.25;;;20.40;99.90;;;;;;6187909;28;20293;-67
2022/06/29 04:57:17;;;;;;;3.40;3.20;;;20.40;99.90;;;;;;6187890;28;20278;-67
2022/06/29 05:00:24;;;;;;;3.10;3.00;;;20.30;99.90;;;;;;6188282;28;20277;-67
2022/06/29 05:03:30;;;;;;;3.10;3.10;;;20.30;99.90;;;;;;6186906;28;20273;-67
2022/06/29 05:06:35;;;;;;;6.78;3.40;;;20.30;99.90;;;;;;6164554;28;20526;-67
2022/06/29 05:09:40;;;;;;;2.88;2.80;;;20.40;99.90;;;;;;6163814;28;20325;-67
2022/06/29 05:12:45;;;;;;;3.40;3.40;;;20.20;99.90;;;;;;6164416;28;20274;-67
2022/06/29 05:15:52;;;;;;;5.03;3.30;;;20.30;99.90;;;;;;6164289;28;20299;-67
2022/06/29 05:18:57;;;;;;;3.72;3.63;;;20.30;99.90;;;;;;6163773;29;20278;-66
2022/06/29 05:22:03;;;;;;;3.70;3.50;;;20.30;99.90;;;;;;6163924;28;20274;-67
2022/06/29 05:25:09;;;;;;;3.53;3.33;;;20.30;99.90;;;;;;6164074;29;20279;-67
2022/06/29 05:28:15;;;;;;;3.28;3.25;;;20.30;99.90;;;;;;6163473;29;20278;-66
2022/06/29 05:31:23;;;;;;;3.88;3.42;;;20.40;99.90;;;;;;6163720;29;20465;-67
2022/06/29 05:34:28;;;;;;;4.97;3.33;;;20.60;99.90;;;;;;6163496;29;20293;-67
2022/06/29 05:37:34;;;;;;;3.58;3.47;;;20.60;99.90;;;;;;6163501;29;20274;-67
2022/06/29 05:40:39;;;;;;;3.95;3.58;;;20.60;99.90;;;;;;6163915;29;20274;-67
2022/06/29 05:43:49;;;;;;;3.30;3.08;;;20.70;99.90;;;;;;6163948;29;20274;-67
2022/06/29 05:46:56;;;;;;;3.72;3.50;;;20.70;99.90;;;;;;6163812;29;20279;-67
2022/06/29 05:50:01;;;;;;;3.33;3.22;;;20.60;99.90;;;;;;6163058;29;20275;-67
2022/06/29 05:53:07;;;;;;;3.80;3.60;;;20.60;99.90;;;;;;6163318;29;20365;-66
2022/06/29 05:56:13;;;;;;;3.42;3.22;;;20.70;99.90;;;;;;6163638;28;20294;-67
2022/06/29 05:59:19;;;;;;;3.28;3.17;;;20.70;99.90;;;;;;6164974;28;20553;-67
2022/06/29 06:02:25;;;;;;;3.97;3.67;;;20.60;99.90;;;;;;6168291;28;20278;-67
2022/06/29 06:05:30;;;;;;;3.60;3.50;;;20.50;99.90;;;;;;6167733;29;20275;-67
2022/06/29 06:08:42;;;;;;;3.92;3.25;;;20.50;99.90;;;;;;6181734;28;20301;-67
2022/06/29 06:11:47;;;;;;;3.30;3.20;;;20.70;99.90;;;;;;6191476;28;20514;-67
2022/06/29 06:14:57;;;;;;;4.35;4.00;;;20.80;99.90;;;;;;6191055;28;20294;-67
2022/06/29 06:18:03;;;;;;;3.33;3.22;;;20.70;99.90;;;;;;6191054;28;20290;-67
2022/06/29 06:21:08;;;;;;;4.03;3.92;;;20.80;99.90;;;;;;6191247;28;20568;-67
2022/06/29 06:24:14;;;;;;;3.45;3.45;;;20.60;99.90;;;;;;6191588;28;20338;-67
2022/06/29 06:27:20;;;;;;;4.15;3.80;;;20.70;99.90;;;;;;6190892;28;20533;-67
2022/06/29 06:30:26;;;;;;;3.97;3.88;;;20.80;99.90;;;;;;6191435;28;20274;-67
2022/06/29 06:33:32;;;;;;;4.53;3.65;;;20.90;99.90;;;;;;6191190;28;20278;-67
2022/06/29 06:36:38;;;;;;;5.65;3.88;;;21.00;99.90;;;;;;6190624;28;20298;-67
2022/06/29 06:41:21;;;;;;;4.10;3.90;;;21.00;99.90;;;;;;6191129;28;20573;-67
2022/06/29 06:43:11;;;;;;;4.07;3.97;;;20.90;99.90;;;;;;6190727;28;20281;-67
2022/06/29 06:46:16;;;;;;;4.80;3.90;;;20.80;99.90;;;;;;6191176;28;20282;-67
2022/06/29 06:49:24;;;;;;;4.28;4.07;;;21.00;99.90;;;;;;6191010;28;20363;-67
2022/06/29 06:52:31;;;;;;;4.30;4.10;;;21.00;99.90;;;;;;6190897;28;20459;-67
2022/06/29 06:55:36;;;;;;;6.95;4.20;;;21.10;99.90;;;;;;6190247;28;20371;-67
2022/06/29 06:58:41;;;;;;;4.55;4.18;;;21.10;99.90;;;;;;6190653;28;20270;-66
2022/06/29 07:01:55;;;;;;;5.15;4.20;;;21.10;99.90;;;;;;6190682;28;20282;-67
2022/06/29 07:05:03;;;;;;;4.32;4.10;;;21.30;99.90;;;;;;6177340;28;20270;-67
2022/06/29 07:08:08;;;;;;;5.90;4.60;;;21.40;99.90;;;;;;6166402;28;20303;-67
2022/06/29 07:11:14;;;;;;;4.45;4.22;;;21.40;99.90;;;;;;6166126;28;20275;-67
2022/06/29 07:14:19;;;;;;;5.13;4.35;;;21.50;99.90;;;;;;6149751;29;20577;-67
2022/06/29 07:17:24;;;;;;;4.45;4.18;;;21.40;99.90;;;;;;6166303;29;20294;-66
2022/06/29 07:20:31;;;;;;;7.35;4.30;;;21.40;99.90;;;;;;6165943;29;20274;-66
2022/06/29 07:23:37;;;;;;;4.30;4.20;;;21.40;99.90;;;;;;6166435;28;20581;-66
2022/06/29 07:26:42;;;;;;;6.18;4.38;;;21.30;99.90;;;;;;6165781;29;20286;-67
2022/06/29 07:29:47;;;;;;;6.68;4.30;;;21.40;99.90;;;;;;6166057;29;20275;-67
2022/06/29 07:32:55;;;;;;;4.60;4.15;;;21.40;99.90;;;;;;6166247;28;20279;-67
2022/06/29 07:36:02;;;;;;;4.35;4.20;;;21.40;99.90;;;;;;6166042;28;20294;-67
2022/06/29 07:39:07;;;;;;;4.45;4.15;;;21.50;99.90;;;;;;6165465;29;20275;-67
2022/06/29 07:42:12;;;;;;;5.30;4.13;;;21.60;99.90;;;;;;6165512;29;20274;-68
2022/06/29 07:45:17;;;;;;;4.75;4.40;;;21.60;99.90;;;;;;6165845;29;20282;-67
2022/06/29 07:48:29;;;;;;;4.18;4.07;;;21.60;99.90;;;;;;6165279;29;20299;-67
2022/06/29 07:51:36;;;;;;;4.40;4.30;;;21.70;99.90;;;;;;6165585;29;20274;-67
2022/06/29 07:54:41;;;;;;;4.63;4.32;;;21.90;99.90;;;;;;6165255;29;20279;-68
2022/06/29 07:57:47;;;;;;;6.57;4.70;;;21.90;99.90;;;;;;6165199;29;20302;-68
2022/06/29 08:00:53;;;;;;;4.20;4.10;;;21.70;99.90;;;;;;6165815;28;20358;-68
2022/06/29 08:03:59;;;;;;;4.78;4.38;;;21.60;99.90;;;;;;6165132;29;20267;-68
2022/06/29 08:07:06;;;;;;;5.00;4.70;;;21.60;99.90;;;;;;6165553;28;20278;-68
2022/06/29 08:10:12;;;;;;;5.82;4.70;;;21.60;99.90;;;;;;6188915;28;20290;-68
2022/06/29 08:13:17;;;;;;;4.63;4.25;;;21.60;99.90;;;;;;6189077;28;20565;-68
2022/06/29 08:16:23;;;;;;;3.97;3.88;;;21.60;99.90;;;;;;6188929;28;20293;-68
2022/06/29 08:19:29;;;;;;;4.18;3.90;;;21.60;99.90;;;;;;6188892;28;20278;-67
2022/06/29 08:22:35;;;;;;;6.47;4.60;;;21.60;99.90;;;;;;6188741;28;20278;-66
2022/06/29 08:25:41;;;;;;;4.15;3.92;;;21.70;99.90;;;;;;6188869;28;20426;-68
2022/06/29 08:29:06;;;;;;;4.78;4.47;;;21.80;99.90;;;;;;6188433;28;20274;-66
2022/06/29 08:32:17;;;;;;;3.70;3.60;;;21.90;99.90;;;;;;6188854;28;20269;-67
2022/06/29 08:35:22;;;;;;;5.35;4.30;;;22.10;99.90;;;;;;6188321;28;20277;-66
2022/06/29 08:38:29;;;;;;;7.38;7.03;;;22.20;99.90;;;;;;6188100;28;20305;-67
2022/06/29 08:41:34;;;;;;;6.25;4.80;;;21.90;99.90;;;;;;6188646;28;20273;-67
2022/06/29 08:44:40;;;;;;;5.20;4.75;;;21.90;99.90;;;;;;6188249;28;20428;-68
2022/06/29 08:47:46;;;;;;;4.68;4.47;;;22.10;99.90;;;;;;6188379;28;20279;-66
2022/06/29 08:50:54;;;;;;;5.07;4.80;;;22.20;99.90;;;;;;6188165;28;20278;-67
2022/06/29 08:54:03;;;;;;;5.47;5.18;;;22.20;99.90;;;;;;6187975;28;20274;-67
2022/06/29 08:57:11;;;;;;;5.82;5.43;;;22.40;99.90;;;;;;6187706;28;20293;-67
2022/06/29 09:00:16;;;;;;;5.40;4.70;;;22.20;99.90;;;;;;6188359;28;20274;-68
2022/06/29 09:03:23;;;;;;;5.13;4.82;;;22.30;99.90;;;;;;6187981;28;20273;-68
2022/06/29 09:06:29;;;;;;;4.47;4.38;;;22.30;99.90;;;;;;6164562;29;20275;-67
2022/06/29 09:10:00;;;;;;;4.50;4.20;;;22.40;99.90;;;;;;6164488;28;20305;-67
2022/06/29 09:13:06;;;;;;;4.50;4.20;;;22.50;99.90;;;;;;6164266;29;20270;-68
2022/06/29 09:16:12;;;;;;;5.10;4.90;;;22.60;99.90;;;;;;6163846;29;20561;-68
2022/06/29 09:19:17;;;;;;;4.68;4.18;;;22.60;99.90;;;;;;6163794;29;20298;-68
2022/06/29 09:22:23;;;;;;;4.88;4.32;;;22.60;99.90;;;;;;6163844;29;20274;-67
2022/06/29 09:25:32;;;;;;;4.75;4.28;;;22.60;99.90;;;;;;6164107;29;20275;-67
2022/06/29 09:28:38;;;;;;;8.38;7.60;;;22.50;99.90;;;;;;6163454;29;20274;-67
2022/06/29 09:31:44;;;;;;;5.68;5.38;;;22.50;99.90;;;;;;6163786;29;20302;-67
2022/06/29 09:34:51;;;;;;;5.22;5.13;;;22.50;99.90;;;;;;6165404;28;20462;-67
2022/06/29 09:38:23;;;;;;;5.53;5.13;;;22.80;99.90;;;;;;6168250;28;20466;-68
2022/06/29 09:41:29;;;;;;;4.93;4.32;;;23.10;99.90;;;;;;6168264;28;20274;-68
2022/06/29 09:44:34;;;;;;;4.22;4.03;;;23.20;99.90;;;;;;6168603;29;20275;-68
2022/06/29 09:47:40;;;;;;;4.50;4.20;;;23.30;99.90;;;;;;6168370;29;20283;-68
2022/06/29 09:50:45;;;;;;;4.47;4.38;;;23.30;99.90;;;;;;6168132;28;20466;-67
2022/06/29 09:53:55;;;;;;;7.78;4.30;;;23.20;99.90;;;;;;6168353;29;20275;-67
2022/06/29 09:57:01;;;;;;;5.13;4.82;;;23.20;99.90;;;;;;6168013;29;20529;-68
2022/06/29 10:03:33;;;;;;;5.03;4.50;;;23.20;99.90;;;;;;6167689;28;20275;-67
2022/06/29 10:06:39;;;;;;;4.05;3.95;;;23.20;99.90;;;;;;6167671;29;20282;-67
2022/06/29 10:09:45;;;;;;;5.85;5.45;;;23.20;99.90;;;;;;6189146;28;20633;-67
2022/06/29 10:16:47;;;;;;;4.78;3.90;;;23.40;99.90;;;;;;6191122;28;20654;-67
2022/06/29 10:20:07;;;;;;;5.03;4.82;;;23.60;99.90;;;;;;6191489;28;20298;-67
2022/06/29 10:23:48;;;;;;;3.72;3.50;;;23.70;99.90;;;;;;6191404;28;20270;-67
2022/06/29 10:26:55;;;;;;;4.93;4.57;;;23.90;99.90;;;;;;6191079;28;20561;-67
2022/06/29 10:30:20;;;;;;;3.67;3.50;;;23.80;99.90;;;;;;6191105;28;20442;-67
2022/06/29 10:33:34;;;;;;;4.15;3.95;;;23.70;99.90;;;;;;6190961;28;20569;-67
2022/06/29 10:37:01;;;;;;;5.10;4.60;;;23.90;99.90;;;;;;6191021;28;20533;-67
2022/06/29 10:40:09;;;;;;;3.92;3.67;;;24.00;99.90;;;;;;6191176;28;20293;-67
2022/06/29 10:43:20;;;;;;;3.40;3.30;;;23.80;99.90;;;;;;6190982;28;20277;-67
2022/06/29 10:46:26;;;;;;;5.78;5.28;;;23.80;99.90;;;;;;6189424;28;20282;-67
2022/06/29 10:49:37;;;;;;;3.80;3.70;;;23.90;99.90;;;;;;6190468;28;20273;-67
2022/06/29 10:52:44;;;;;;;3.60;3.47;;;24.00;99.90;;;;;;6190589;28;20274;-67
2022/06/29 10:55:55;;;;;;;4.05;3.80;;;24.10;99.90;;;;;;6190166;28;20274;-67
2022/06/29 10:59:02;;;;;;;3.72;3.60;;;24.00;99.90;;;;;;6190159;28;20290;-67
2022/06/29 11:02:11;;;;;;;4.30;3.90;;;24.00;99.90;;;;;;6190234;28;20356;-68
2022/06/29 11:05:17;;;;;;;4.25;3.92;;;24.00;99.90;;;;;;6174889;28;20262;-68
2022/06/29 11:12:03;;;;;;;4.25;3.95;;;24.10;99.90;;;;;;6166798;28;20275;-68
2022/06/29 11:18:34;;;;;;;5.97;5.57;;;23.90;99.90;;;;;;6166043;29;20480;-68
2022/06/29 11:21:39;;;;;;;4.82;4.65;;;23.80;99.90;;;;;;6166274;28;20271;-68
2022/06/29 11:24:58;;;;;;;4.47;4.28;;;23.90;99.90;;;;;;6165780;29;20449;-68
2022/06/29 11:28:04;;;;;;;5.88;4.13;;;23.90;99.90;;;;;;6166172;28;20275;-68
2022/06/29 11:31:13;;;;;;;3.78;3.67;;;24.00;99.90;;;;;;6166146;29;20306;-68
2022/06/29 11:34:19;;;;;;;4.50;4.25;;;23.90;99.90;;;;;;6165196;29;20278;-68
2022/06/29 11:37:24;;;;;;;4.20;4.10;;;23.90;99.90;;;;;;6166076;28;20577;-68
2022/06/29 11:40:35;;;;;;;4.63;4.30;;;23.90;99.90;;;;;;6165924;29;20309;-68
2022/06/29 11:43:41;;;;;;;4.38;4.10;;;23.80;99.90;;;;;;6165883;29;20448;-68
2022/06/29 11:46:48;;;;;;;4.75;4.55;;;23.70;99.90;;;;;;6166092;28;20270;-68
2022/06/29 11:49:53;;;;;;;6.95;4.45;;;23.70;99.90;;;;;;6165691;29;20282;-68
2022/06/29 11:52:58;;;;;;;4.38;4.05;;;23.70;99.90;;;;;;6165307;29;20274;-68
2022/06/29 11:56:09;;;;;;;4.13;3.97;;;23.70;99.90;;;;;;6165551;29;20275;-68
2022/06/29 11:59:17;;;;;;;4.47;4.30;;;23.70;99.90;;;;;;6165087;28;20294;-68
2022/06/29 12:02:34;;;;;;;6.50;4.35;;;23.80;99.90;;;;;;6165603;29;20271;-68
2022/06/29 12:05:56;;;;;;;4.28;4.07;;;23.90;99.90;;;;;;6165581;29;20270;-68
2022/06/29 12:09:01;;;;;;;9.73;4.90;;;23.90;99.90;;;;;;6181288;28;20306;-68
2022/06/29 12:12:09;;;;;;;4.00;3.90;;;24.00;99.90;;;;;;6189065;28;20277;-68
2022/06/29 12:15:16;;;;;;;4.80;4.20;;;23.90;99.90;;;;;;6188280;28;20428;-67
2022/06/29 12:18:23;;;;;;;4.88;4.43;;;23.90;99.90;;;;;;6188904;28;20269;-68
2022/06/29 12:21:28;;;;;;;4.82;4.35;;;23.90;99.90;;;;;;6189069;28;20293;-68
2022/06/29 12:24:33;;;;;;;4.45;4.35;;;24.00;99.90;;;;;;6188718;28;20378;-68
2022/06/29 12:27:38;;;;;;;4.32;4.22;;;24.00;99.90;;;;;;6188675;28;20273;-67
2022/06/29 12:30:43;;;;;;;4.80;4.60;;;24.00;99.90;;;;;;6188440;28;20313;-67
2022/06/29 12:33:51;;;;;;;5.13;4.55;;;23.90;99.90;;;;;;6188754;28;20278;-67
2022/06/29 12:40:19;;;;;;;5.05;4.88;;;23.80;99.90;;;;;;6188115;28;20297;-67
2022/06/29 12:43:24;;;;;;;4.72;4.28;;;23.80;99.90;;;;;;6188817;28;20273;-68
2022/06/29 12:46:29;;;;;;;5.20;4.68;;;23.90;99.90;;;;;;6188624;28;20279;-68
2022/06/29 12:49:36;;;;;;;4.57;4.25;;;23.90;99.90;;;;;;6188621;28;20277;-68
2022/06/29 12:52:46;;;;;;;4.93;4.68;;;24.00;99.90;;;;;;6187982;28;20273;-67
2022/06/29 12:55:51;;;;;;;4.60;4.40;;;24.00;99.90;;;;;;6187967;28;20273;-67
2022/06/29 12:58:57;;;;;;;4.35;4.25;;;23.90;99.90;;;;;;6188403;28;20273;-67
2022/06/29 13:02:02;;;;;;;4.57;4.07;;;23.80;99.90;;;;;;6188294;28;20293;-68
2022/06/29 13:05:09;;;;;;;6.13;4.65;;;23.80;99.90;;;;;;6173556;28;20267;-67
2022/06/29 13:08:15;;;;;;;5.22;4.82;;;23.80;99.90;;;;;;6163937;28;20306;-67
2022/06/29 13:11:20;;;;;;;5.03;4.82;;;23.90;99.90;;;;;;6164230;28;20278;-67
2022/06/29 13:14:25;;;;;;;5.05;4.63;;;24.00;99.90;;;;;;6164461;28;20333;-67
2022/06/29 13:17:31;;;;;;;4.45;4.35;;;24.10;99.90;;;;;;6163864;29;20274;-68
2022/06/29 13:20:37;;;;;;;4.85;4.65;;;24.00;99.90;;;;;;6163826;28;20294;-68
2022/06/29 13:23:43;;;;;;;5.65;5.20;;;23.90;99.90;;;;;;6163716;29;20274;-68
2022/06/29 13:26:48;;;;;;;4.82;4.43;;;23.90;99.90;;;;;;6164381;28;20275;-68
2022/06/29 13:29:57;;;;;;;5.60;4.40;;;24.00;99.90;;;;;;6164070;29;20282;-68
2022/06/29 13:33:02;;;;;;;5.03;4.82;;;24.20;99.90;;;;;;6164058;29;20278;-68
2022/06/29 13:36:09;;;;;;;5.45;5.25;;;24.20;99.90;;;;;;6164024;29;20274;-68
2022/06/29 13:39:14;;;;;;;4.55;4.45;;;24.30;99.90;;;;;;6163340;29;20302;-68
2022/06/29 13:42:20;;;;;;;5.55;5.10;;;24.40;99.90;;;;;;6163313;29;20442;-67
2022/06/29 13:45:25;;;;;;;5.38;5.07;;;24.30;99.90;;;;;;6163402;28;20275;-68
2022/06/29 13:48:30;;;;;;;5.65;5.30;;;24.30;99.90;;;;;;6163498;28;20274;-68
2022/06/29 13:51:37;;;;;;;14.05;12.57;;;24.30;99.90;;;;;;6163854;28;20286;-68
2022/06/29 13:54:43;;;;;;;8.80;8.13;;;24.10;99.90;;;;;;6163712;28;20274;-68
2022/06/29 13:57:48;;;;;;;7.07;6.78;;;24.10;99.90;;;;;;6163678;29;20424;-68
2022/06/29 14:00:54;;;;;;;6.55;6.05;;;24.00;99.90;;;;;;6163016;29;20298;-68
2022/06/29 14:03:59;;;;;;;6.47;5.90;;;24.00;99.90;;;;;;6163490;29;20266;-68
2022/06/29 14:07:06;;;;;;;7.70;5.07;;;24.00;99.90;;;;;;6163895;28;20279;-68
2022/06/29 14:10:32;;;;;;;5.85;5.57;;;24.10;99.90;;;;;;6163312;29;20461;-67
2022/06/29 14:13:37;;;;;;;5.55;5.22;;;24.10;99.90;;;;;;6163030;28;20553;-68
2022/06/29 14:16:42;;;;;;;5.70;5.30;;;24.10;99.90;;;;;;6163010;29;20553;-68
2022/06/29 14:19:47;;;;;;;6.20;5.65;;;24.10;99.90;;;;;;6163070;28;20279;-68
2022/06/29 14:22:54;;;;;;;5.88;5.57;;;24.10;99.90;;;;;;6167429;29;20294;-68
2022/06/29 14:25:59;;;;;;;6.03;5.72;;;24.00;99.90;;;;;;6167412;29;20273;-68
2022/06/29 14:29:05;;;;;;;7.25;6.85;;;24.00;99.90;;;;;;6167002;29;20281;-67
2022/06/29 14:32:11;;;;;;;8.20;7.50;;;24.00;99.90;;;;;;6167314;29;20278;-67
2022/06/29 14:35:32;;;;;;;7.20;6.72;;;23.90;99.90;;;;;;6166531;28;20274;-67
2022/06/29 14:38:39;;;;;;;7.25;6.72;;;23.90;99.90;;;;;;6166910;29;20274;-67
2022/06/29 14:41:44;;;;;;;7.78;5.70;;;24.00;99.90;;;;;;6166691;29;20469;-67
2022/06/29 14:44:49;;;;;;;5.80;5.35;;;23.90;99.90;;;;;;6166636;29;20278;-68
2022/06/29 14:47:54;;;;;;;10.18;9.38;;;23.90;99.90;;;;;;6167166;29;20279;-68
2022/06/29 14:50:59;;;;;;;5.90;5.35;;;23.90;99.90;;;;;;6166966;29;20283;-67
2022/06/29 14:54:06;;;;;;;4.90;4.70;;;23.70;99.90;;;;;;6166507;29;20275;-67
2022/06/29 14:57:11;;;;;;;5.70;5.40;;;23.80;99.90;;;;;;6166623;29;20270;-68
2022/06/29 15:00:17;;;;;;;5.70;5.40;;;23.80;99.90;;;;;;6166735;29;20279;-68
2022/06/29 15:03:23;;;;;;;6.38;5.82;;;23.90;99.90;;;;;;6166604;29;20295;-68
2022/06/29 15:06:33;;;;;;;5.97;5.53;;;23.90;99.90;;;;;;6166686;29;20278;-68
2022/06/29 15:09:39;;;;;;;5.65;5.38;;;23.90;99.90;;;;;;6166609;28;20302;-68
2022/06/29 15:12:44;;;;;;;5.45;5.10;;;24.10;99.90;;;;;;6166039;29;20275;-68
2022/06/29 15:15:50;;;;;;;8.02;5.60;;;24.00;99.90;;;;;;6166764;29;20275;-67
2022/06/29 15:18:57;;;;;;;6.03;5.72;;;24.10;99.90;;;;;;6166090;29;20279;-67
2022/06/29 15:22:03;;;;;;;7.22;6.72;;;24.10;99.90;;;;;;6166205;29;20299;-67
2022/06/29 15:25:15;;;;;;;10.85;9.85;;;24.10;99.90;;;;;;6166570;28;20453;-68
2022/06/29 15:28:21;;;;;;;7.72;7.30;;;24.10;99.90;;;;;;6166586;28;20274;-68
2022/06/29 15:31:33;;;;;;;8.90;8.35;;;24.00;99.90;;;;;;6165508;28;20278;-68
2022/06/29 15:41:25;;;;;;;10.48;9.48;;;24.00;99.90;;;;;;6165584;29;20279;-67
2022/06/29 15:44:30;;;;;;;8.52;7.82;;;24.10;99.90;;;;;;6165756;29;20279;-67
2022/06/29 15:47:35;;;;;;;8.00;7.40;;;24.20;99.90;;;;;;6165684;28;20274;-67
2022/06/29 15:50:43;;;;;;;8.32;7.68;;;24.30;99.90;;;;;;6164665;29;20510;-67
2022/06/29 15:57:13;;;;;;;7.82;7.43;;;24.30;99.90;;;;;;6165060;29;20357;-67
2022/06/29 16:00:20;;;;;;;7.88;7.20;;;24.30;99.90;;;;;;6165146;28;20274;-68
2022/06/29 16:03:25;;;;;;;11.27;10.38;;;24.20;99.90;;;;;;6165274;29;20294;-68
2022/06/29 16:06:30;;;;;;;9.35;8.43;;;24.20;99.90;;;;;;6165508;29;20279;-68
2022/06/29 16:09:35;;;;;;;9.07;8.23;;;24.20;99.90;;;;;;6183751;28;20302;-68
2022/06/29 16:12:43;;;;;;;8.52;7.95;;;24.20;99.90;;;;;;6188784;28;20441;-68
2022/06/29 16:15:48;;;;;;;8.40;7.90;;;24.30;99.90;;;;;;6188177;28;20273;-67
2022/06/29 16:18:54;;;;;;;8.48;7.90;;;24.30;99.90;;;;;;6188956;28;20297;-68
2022/06/29 16:21:59;;;;;;;8.73;8.07;;;24.40;99.90;;;;;;6188186;28;20293;-67
2022/06/29 16:25:05;;;;;;;9.48;8.65;;;24.50;99.90;;;;;;6188258;28;20558;-68
2022/06/29 16:28:13;;;;;;;9.07;8.15;;;24.50;99.90;;;;;;6188555;28;20274;-68
2022/06/29 16:31:18;;;;;;;8.48;7.80;;;24.60;99.90;;;;;;6188066;28;20273;-67
2022/06/29 16:34:23;;;;;;;7.88;7.32;;;24.70;99.90;;;;;;6188100;28;20297;-67
2022/06/29 16:37:29;;;;;;;7.93;7.45;;;24.80;99.90;;;;;;6188026;28;20285;-67
2022/06/29 16:40:34;;;;;;;7.88;7.38;;;24.90;99.90;;;;;;6187774;28;20269;-67
2022/06/29 16:43:40;;;;;;;8.02;7.63;;;25.00;99.90;;;;;;6186994;28;20294;-67